N2RF EDDM-EHAM
Flight info
| Callsign | N2RF |
|---|---|
| Flight time | 1h 2m |
| Altitude | 30000 |
| Route | GIVMI1N/26R GIVMI Y101 IBAGA MASEK MAPOX NORKU |
| Aircraft | C700/L-V/N |
Departure
| Time | 2026-05-05 18:50 |
|---|---|
| Airport | Munich Airport (EDDM) |
Arrival
| Time | 2026-05-05 19:53 |
|---|---|
| Airport | Amsterdam Airport Schiphol (EHAM) |
| Time | Latitude | Longitude | Altitude | Speed | Heading |
|---|---|---|---|---|---|
| 2026-05-05 18:13 | 48.35788 | 11.80297 | 1461 ft | 0 kts | 173° |
| 2026-05-05 18:30 | 48.35789 | 11.80297 | 1461 ft | 0 kts | 173° |
| 2026-05-05 18:31 | 48.35799 | 11.80295 | 1434 ft | 3 kts | 173° |
| 2026-05-05 18:31 | 48.35817 | 11.80292 | 1462 ft | 3 kts | 173° |
| 2026-05-05 18:31 | 48.35834 | 11.80294 | 1461 ft | 2 kts | 236° |
| 2026-05-05 18:31 | 48.35836 | 11.80297 | 1461 ft | 2 kts | 250° |
| 2026-05-05 18:32 | 48.35836 | 11.80299 | 1461 ft | 2 kts | 257° |
| 2026-05-05 18:32 | 48.35837 | 11.80303 | 1458 ft | 0 kts | 265° |
| 2026-05-05 18:42 | 48.35843 | 11.80269 | 1461 ft | 11 kts | 304° |
| 2026-05-05 18:42 | 48.35862 | 11.80200 | 1459 ft | 6 kts | 273° |
| 2026-05-05 18:42 | 48.35857 | 11.80086 | 1461 ft | 14 kts | 264° |
| 2026-05-05 18:43 | 48.35842 | 11.79923 | 1461 ft | 17 kts | 262° |
| 2026-05-05 18:43 | 48.35827 | 11.79739 | 1461 ft | 19 kts | 265° |
| 2026-05-05 18:43 | 48.35821 | 11.79614 | 1461 ft | 0 kts | 264° |
| 2026-05-05 18:43 | 48.35815 | 11.79550 | 1461 ft | 10 kts | 262° |
| 2026-05-05 18:44 | 48.35841 | 11.79458 | 1461 ft | 8 kts | 343° |
| 2026-05-05 18:44 | 48.35915 | 11.79489 | 1460 ft | 14 kts | 23° |
| 2026-05-05 18:44 | 48.35962 | 11.79502 | 1461 ft | 0 kts | 355° |
| 2026-05-05 18:45 | 48.35973 | 11.79501 | 1461 ft | 5 kts | 358° |
| 2026-05-05 18:45 | 48.36036 | 11.79491 | 1461 ft | 13 kts | 350° |
| 2026-05-05 18:45 | 48.36110 | 11.79548 | 1462 ft | 15 kts | 79° |
| 2026-05-05 18:45 | 48.36125 | 11.79745 | 1462 ft | 23 kts | 81° |
| 2026-05-05 18:46 | 48.36144 | 11.80015 | 1462 ft | 29 kts | 83° |
| 2026-05-05 18:46 | 48.36169 | 11.80348 | 1462 ft | 36 kts | 85° |
| 2026-05-05 18:46 | 48.36196 | 11.80701 | 1462 ft | 32 kts | 83° |
| 2026-05-05 18:46 | 48.36223 | 11.81040 | 1457 ft | 33 kts | 83° |
| 2026-05-05 18:47 | 48.36250 | 11.81381 | 1461 ft | 33 kts | 83° |
| 2026-05-05 18:47 | 48.36275 | 11.81725 | 1461 ft | 33 kts | 85° |
| 2026-05-05 18:47 | 48.36287 | 11.81869 | 1460 ft | 13 kts | 74° |
| 2026-05-05 18:47 | 48.36352 | 11.81983 | 1457 ft | 12 kts | 37° |
| 2026-05-05 18:48 | 48.36369 | 11.82003 | 1460 ft | 4 kts | 37° |
| 2026-05-05 18:48 | 48.36383 | 11.82018 | 1458 ft | 5 kts | 28° |
| 2026-05-05 18:48 | 48.36457 | 11.82011 | 1460 ft | 18 kts | 353° |
| 2026-05-05 18:48 | 48.36602 | 11.81982 | 1461 ft | 24 kts | 354° |
| 2026-05-05 18:49 | 48.36676 | 11.81893 | 1461 ft | 0 kts | 263° |
| 2026-05-05 18:50 | 48.36645 | 11.81473 | 1461 ft | 92 kts | 263° |
| 2026-05-05 18:50 | 48.36555 | 11.80097 | 1757 ft | 156 kts | 267° |
| 2026-05-05 18:50 | 48.36463 | 11.78125 | 2179 ft | 233 kts | 265° |
| 2026-05-05 18:50 | 48.36236 | 11.75570 | 3647 ft | 242 kts | 263° |
| 2026-05-05 18:51 | 48.36022 | 11.73108 | 5984 ft | 234 kts | 263° |
| 2026-05-05 18:51 | 48.35846 | 11.70418 | 7003 ft | 288 kts | 267° |
| 2026-05-05 18:51 | 48.36225 | 11.67067 | 7063 ft | 354 kts | 287° |
| 2026-05-05 18:51 | 48.37324 | 11.63878 | 7057 ft | 331 kts | 300° |
| 2026-05-05 18:52 | 48.38524 | 11.61045 | 7047 ft | 312 kts | 300° |
| 2026-05-05 18:52 | 48.39620 | 11.58412 | 7042 ft | 289 kts | 299° |
| 2026-05-05 18:52 | 48.40623 | 11.55928 | 7043 ft | 268 kts | 298° |
| 2026-05-05 18:52 | 48.41566 | 11.53587 | 7190 ft | 253 kts | 298° |
| 2026-05-05 18:53 | 48.42482 | 11.51325 | 7680 ft | 262 kts | 298° |
| 2026-05-05 18:53 | 48.43460 | 11.48906 | 8197 ft | 274 kts | 298° |
| 2026-05-05 18:53 | 48.44513 | 11.46505 | 8708 ft | 277 kts | 306° |
| 2026-05-05 18:53 | 48.45920 | 11.44475 | 9217 ft | 283 kts | 319° |
| 2026-05-05 18:54 | 48.47648 | 11.42958 | 9732 ft | 298 kts | 333° |
| 2026-05-05 18:54 | 48.49762 | 11.42039 | 10220 ft | 332 kts | 346° |
| 2026-05-05 18:54 | 48.52058 | 11.41432 | 10715 ft | 344 kts | 347° |
| 2026-05-05 18:54 | 48.54436 | 11.40800 | 11213 ft | 350 kts | 346° |
| 2026-05-05 18:55 | 48.56838 | 11.40137 | 11710 ft | 351 kts | 346° |
| 2026-05-05 18:55 | 48.59252 | 11.39466 | 12220 ft | 359 kts | 346° |
| 2026-05-05 18:55 | 48.61805 | 11.38754 | 12751 ft | 385 kts | 347° |
| 2026-05-05 18:55 | 48.64480 | 11.38023 | 13289 ft | 394 kts | 347° |
| 2026-05-05 18:56 | 48.67183 | 11.37288 | 13795 ft | 396 kts | 347° |
| 2026-05-05 18:56 | 48.69882 | 11.36374 | 14278 ft | 396 kts | 339° |
| 2026-05-05 18:56 | 48.72417 | 11.34752 | 14761 ft | 394 kts | 330° |
| 2026-05-05 18:56 | 48.74881 | 11.32870 | 15257 ft | 398 kts | 330° |
| 2026-05-05 18:57 | 48.77372 | 11.30986 | 15760 ft | 400 kts | 331° |
| 2026-05-05 18:57 | 48.79873 | 11.29103 | 16268 ft | 403 kts | 331° |
| 2026-05-05 18:57 | 48.82366 | 11.27215 | 16787 ft | 408 kts | 331° |
| 2026-05-05 18:57 | 48.84954 | 11.25248 | 17319 ft | 412 kts | 331° |
| 2026-05-05 18:58 | 48.87499 | 11.23315 | 17859 ft | 415 kts | 331° |
| 2026-05-05 18:58 | 48.90098 | 11.21342 | 18361 ft | 419 kts | 331° |
| 2026-05-05 18:58 | 48.92718 | 11.19349 | 18836 ft | 422 kts | 331° |
| 2026-05-05 18:58 | 48.95356 | 11.17338 | 19339 ft | 424 kts | 331° |
| 2026-05-05 18:59 | 48.98003 | 11.15319 | 19951 ft | 428 kts | 331° |
| 2026-05-05 18:59 | 48.99778 | 11.13962 | 20375 ft | 433 kts | 331° |
| 2026-05-05 18:59 | 49.02504 | 11.11878 | 21010 ft | 442 kts | 331° |
| 2026-05-05 18:59 | 49.06163 | 11.09080 | 21872 ft | 446 kts | 331° |
| 2026-05-05 19:00 | 49.08037 | 11.07645 | 22334 ft | 447 kts | 331° |
| 2026-05-05 19:00 | 49.10792 | 11.05530 | 22996 ft | 449 kts | 331° |
| 2026-05-05 19:00 | 49.13611 | 11.03363 | 23643 ft | 456 kts | 331° |
| 2026-05-05 19:00 | 49.16468 | 11.01164 | 24256 ft | 463 kts | 331° |
| 2026-05-05 19:01 | 49.19360 | 10.98938 | 24845 ft | 469 kts | 331° |
| 2026-05-05 19:01 | 49.22295 | 10.96676 | 25449 ft | 472 kts | 331° |
| 2026-05-05 19:01 | 49.25237 | 10.94400 | 26062 ft | 476 kts | 332° |
| 2026-05-05 19:01 | 49.28224 | 10.92091 | 26696 ft | 483 kts | 332° |
| 2026-05-05 19:02 | 49.31241 | 10.89759 | 27366 ft | 489 kts | 332° |
| 2026-05-05 19:02 | 49.34248 | 10.87427 | 28022 ft | 494 kts | 332° |
| 2026-05-05 19:02 | 49.37337 | 10.85026 | 28710 ft | 499 kts | 332° |
| 2026-05-05 19:02 | 49.40447 | 10.82607 | 29407 ft | 503 kts | 332° |
| 2026-05-05 19:03 | 49.43593 | 10.80159 | 29845 ft | 514 kts | 332° |
| 2026-05-05 19:03 | 49.46820 | 10.77642 | 29845 ft | 518 kts | 332° |
| 2026-05-05 19:03 | 49.53111 | 10.72728 | 29830 ft | 505 kts | 332° |
| 2026-05-05 19:04 | 49.59397 | 10.67797 | 29825 ft | 509 kts | 332° |
| 2026-05-05 19:04 | 49.65724 | 10.62826 | 29831 ft | 510 kts | 332° |
| 2026-05-05 19:05 | 49.72027 | 10.57854 | 29815 ft | 508 kts | 333° |
| 2026-05-05 19:05 | 49.78141 | 10.52422 | 29814 ft | 507 kts | 327° |
| 2026-05-05 19:06 | 49.84167 | 10.46651 | 29839 ft | 509 kts | 328° |
| 2026-05-05 19:06 | 49.90143 | 10.40938 | 29825 ft | 505 kts | 328° |
| 2026-05-05 19:07 | 49.96110 | 10.35193 | 29810 ft | 505 kts | 328° |
| 2026-05-05 19:07 | 50.02103 | 10.29423 | 29812 ft | 509 kts | 328° |
| 2026-05-05 19:08 | 50.08111 | 10.23610 | 29811 ft | 508 kts | 328° |
| 2026-05-05 19:08 | 50.14107 | 10.17798 | 29810 ft | 506 kts | 328° |
| 2026-05-05 19:09 | 50.20075 | 10.11992 | 29820 ft | 505 kts | 328° |
| 2026-05-05 19:09 | 50.26058 | 10.06157 | 29809 ft | 510 kts | 328° |
| 2026-05-05 19:10 | 50.32079 | 10.00265 | 29814 ft | 510 kts | 328° |
| 2026-05-05 19:10 | 50.38082 | 9.94374 | 29813 ft | 508 kts | 328° |
| 2026-05-05 19:11 | 50.43599 | 9.87635 | 29804 ft | 506 kts | 314° |
| 2026-05-05 19:11 | 50.48335 | 9.79442 | 29805 ft | 507 kts | 310° |
| 2026-05-05 19:12 | 50.53353 | 9.71687 | 29814 ft | 509 kts | 317° |
| 2026-05-05 19:12 | 50.58495 | 9.63923 | 29813 ft | 510 kts | 313° |
| 2026-05-05 19:13 | 50.63461 | 9.56059 | 29808 ft | 509 kts | 315° |
| 2026-05-05 19:13 | 50.68544 | 9.48295 | 29806 ft | 507 kts | 314° |
| 2026-05-05 19:14 | 50.73522 | 9.40431 | 29801 ft | 506 kts | 315° |
| 2026-05-05 19:14 | 50.78552 | 9.32630 | 29808 ft | 508 kts | 314° |
| 2026-05-05 19:15 | 50.83559 | 9.24727 | 29809 ft | 509 kts | 314° |
| 2026-05-05 19:15 | 50.88590 | 9.16833 | 29809 ft | 508 kts | 314° |
| 2026-05-05 19:16 | 50.93580 | 9.08935 | 29805 ft | 506 kts | 314° |
| 2026-05-05 19:16 | 50.98561 | 9.01051 | 29805 ft | 505 kts | 314° |
| 2026-05-05 19:17 | 51.03493 | 8.93206 | 29802 ft | 505 kts | 314° |
| 2026-05-05 19:17 | 51.08465 | 8.85277 | 29802 ft | 507 kts | 314° |
| 2026-05-05 19:18 | 51.13441 | 8.77315 | 29803 ft | 508 kts | 314° |
| 2026-05-05 19:18 | 51.18423 | 8.69317 | 29810 ft | 509 kts | 313° |
| 2026-05-05 19:19 | 51.23400 | 8.61303 | 29809 ft | 507 kts | 313° |
| 2026-05-05 19:19 | 51.28327 | 8.53344 | 29814 ft | 505 kts | 313° |
| 2026-05-05 19:20 | 51.33295 | 8.45288 | 29820 ft | 506 kts | 313° |
| 2026-05-05 19:20 | 51.38211 | 8.37294 | 29823 ft | 508 kts | 313° |
| 2026-05-05 19:21 | 51.43168 | 8.29205 | 29825 ft | 509 kts | 313° |
| 2026-05-05 19:21 | 51.48123 | 8.21095 | 29828 ft | 508 kts | 313° |
| 2026-05-05 19:22 | 51.53054 | 8.12995 | 29833 ft | 506 kts | 312° |
| 2026-05-05 19:22 | 51.57951 | 8.04927 | 29833 ft | 502 kts | 312° |
| 2026-05-05 19:23 | 51.62826 | 7.96866 | 29835 ft | 503 kts | 311° |
| 2026-05-05 19:23 | 51.67714 | 7.88759 | 29836 ft | 505 kts | 311° |
| 2026-05-05 19:24 | 51.72608 | 7.80614 | 29837 ft | 506 kts | 311° |
| 2026-05-05 19:24 | 51.77465 | 7.72506 | 29840 ft | 504 kts | 312° |
| 2026-05-05 19:25 | 51.82317 | 7.64378 | 29839 ft | 500 kts | 311° |
| 2026-05-05 19:25 | 51.87124 | 7.56295 | 29844 ft | 499 kts | 311° |
| 2026-05-05 19:26 | 51.91938 | 7.48179 | 29849 ft | 501 kts | 311° |
| 2026-05-05 19:26 | 51.96720 | 7.40094 | 28602 ft | 488 kts | 311° |
| 2026-05-05 19:27 | 51.99031 | 7.36175 | 27906 ft | 467 kts | 311° |
| 2026-05-05 19:27 | 52.01226 | 7.32451 | 27902 ft | 452 kts | 311° |
| 2026-05-05 19:27 | 52.03433 | 7.28679 | 27907 ft | 470 kts | 311° |
| 2026-05-05 19:27 | 52.05730 | 7.24753 | 27911 ft | 487 kts | 311° |
| 2026-05-05 19:28 | 52.08083 | 7.20753 | 27919 ft | 488 kts | 311° |
| 2026-05-05 19:28 | 52.10418 | 7.16777 | 27915 ft | 484 kts | 311° |
| 2026-05-05 19:28 | 52.12726 | 7.12817 | 27913 ft | 482 kts | 310° |
| 2026-05-05 19:28 | 52.15038 | 7.08841 | 27918 ft | 483 kts | 311° |
| 2026-05-05 19:29 | 52.17326 | 7.04914 | 27922 ft | 484 kts | 311° |
| 2026-05-05 19:29 | 52.19645 | 7.00931 | 27921 ft | 485 kts | 311° |
| 2026-05-05 19:29 | 52.21939 | 6.96894 | 27869 ft | 485 kts | 308° |
| 2026-05-05 19:29 | 52.24075 | 6.92624 | 27654 ft | 487 kts | 306° |
| 2026-05-05 19:30 | 52.26200 | 6.88344 | 27199 ft | 482 kts | 306° |
| 2026-05-05 19:30 | 52.28308 | 6.84143 | 26730 ft | 473 kts | 307° |
| 2026-05-05 19:30 | 52.30383 | 6.80008 | 26267 ft | 467 kts | 306° |
| 2026-05-05 19:30 | 52.32424 | 6.75900 | 25816 ft | 465 kts | 306° |
| 2026-05-05 19:31 | 52.34460 | 6.71793 | 25381 ft | 462 kts | 306° |
| 2026-05-05 19:31 | 52.36477 | 6.67737 | 24939 ft | 457 kts | 306° |
| 2026-05-05 19:31 | 52.38474 | 6.63714 | 24510 ft | 453 kts | 306° |
| 2026-05-05 19:31 | 52.40445 | 6.59730 | 24330 ft | 445 kts | 306° |
| 2026-05-05 19:32 | 52.42396 | 6.55778 | 24334 ft | 449 kts | 306° |
| 2026-05-05 19:32 | 52.44262 | 6.51725 | 24331 ft | 452 kts | 300° |
| 2026-05-05 19:32 | 52.45745 | 6.47195 | 24339 ft | 449 kts | 291° |
| 2026-05-05 19:32 | 52.46773 | 6.42383 | 24330 ft | 446 kts | 282° |
| 2026-05-05 19:33 | 52.47367 | 6.37497 | 23628 ft | 427 kts | 275° |
| 2026-05-05 19:33 | 52.47578 | 6.32618 | 21713 ft | 429 kts | 271° |
| 2026-05-05 19:33 | 52.47782 | 6.27724 | 20293 ft | 420 kts | 273° |
| 2026-05-05 19:33 | 52.48037 | 6.23064 | 18895 ft | 413 kts | 274° |
| 2026-05-05 19:34 | 52.48291 | 6.18399 | 17422 ft | 407 kts | 274° |
| 2026-05-05 19:34 | 52.48504 | 6.13811 | 16372 ft | 394 kts | 274° |
| 2026-05-05 19:34 | 52.48701 | 6.09435 | 15947 ft | 380 kts | 274° |
| 2026-05-05 19:35 | 52.49132 | 6.00563 | 15008 ft | 394 kts | 274° |
| 2026-05-05 19:35 | 52.49342 | 5.96131 | 14952 ft | 387 kts | 274° |
| 2026-05-05 19:35 | 52.49546 | 5.91700 | 14585 ft | 391 kts | 274° |
| 2026-05-05 19:35 | 52.49753 | 5.87259 | 14229 ft | 388 kts | 274° |
| 2026-05-05 19:36 | 52.49954 | 5.82912 | 13875 ft | 385 kts | 274° |
| 2026-05-05 19:36 | 52.50155 | 5.78539 | 13495 ft | 383 kts | 274° |
| 2026-05-05 19:36 | 52.50352 | 5.74185 | 13098 ft | 381 kts | 274° |
| 2026-05-05 19:36 | 52.50546 | 5.69858 | 12705 ft | 378 kts | 274° |
| 2026-05-05 19:37 | 52.50738 | 5.65566 | 12314 ft | 375 kts | 274° |
| 2026-05-05 19:37 | 52.50925 | 5.61316 | 11936 ft | 372 kts | 274° |
| 2026-05-05 19:37 | 52.50860 | 5.57094 | 11547 ft | 371 kts | 263° |
| 2026-05-05 19:37 | 52.50281 | 5.52962 | 11167 ft | 370 kts | 252° |
| 2026-05-05 19:38 | 52.49425 | 5.49034 | 10805 ft | 369 kts | 250° |
| 2026-05-05 19:38 | 52.48562 | 5.45037 | 10433 ft | 365 kts | 251° |
| 2026-05-05 19:38 | 52.47746 | 5.41224 | 10073 ft | 350 kts | 251° |
| 2026-05-05 19:38 | 52.46956 | 5.37566 | 9697 ft | 329 kts | 251° |
| 2026-05-05 19:39 | 52.46211 | 5.34144 | 9288 ft | 310 kts | 251° |
| 2026-05-05 19:39 | 52.45506 | 5.30899 | 8887 ft | 295 kts | 251° |
| 2026-05-05 19:39 | 52.44833 | 5.27789 | 8482 ft | 284 kts | 251° |
| 2026-05-05 19:39 | 52.44180 | 5.24780 | 8094 ft | 277 kts | 251° |
| 2026-05-05 19:40 | 52.43536 | 5.21823 | 7707 ft | 276 kts | 251° |
| 2026-05-05 19:40 | 52.42888 | 5.18851 | 7324 ft | 277 kts | 251° |
| 2026-05-05 19:40 | 52.42240 | 5.15865 | 6985 ft | 279 kts | 252° |
| 2026-05-05 19:40 | 52.41595 | 5.12930 | 6966 ft | 271 kts | 252° |
| 2026-05-05 19:41 | 52.40952 | 5.10008 | 6971 ft | 274 kts | 251° |
| 2026-05-05 19:41 | 52.40304 | 5.07049 | 6974 ft | 278 kts | 252° |
| 2026-05-05 19:41 | 52.39648 | 5.04058 | 6971 ft | 280 kts | 251° |
| 2026-05-05 19:41 | 52.38987 | 5.01065 | 6966 ft | 280 kts | 252° |
| 2026-05-05 19:42 | 52.38336 | 4.98103 | 6970 ft | 279 kts | 251° |
| 2026-05-05 19:42 | 52.37677 | 4.95116 | 6969 ft | 279 kts | 251° |
| 2026-05-05 19:42 | 52.37016 | 4.92128 | 7049 ft | 280 kts | 251° |
| 2026-05-05 19:42 | 52.36351 | 4.89131 | 7051 ft | 278 kts | 253° |
| 2026-05-05 19:43 | 52.35696 | 4.86167 | 7047 ft | 277 kts | 251° |
| 2026-05-05 19:43 | 52.35038 | 4.83201 | 7050 ft | 278 kts | 253° |
| 2026-05-05 19:43 | 52.34376 | 4.80209 | 7051 ft | 281 kts | 252° |
| 2026-05-05 19:43 | 52.33732 | 4.77176 | 7048 ft | 282 kts | 257° |
| 2026-05-05 19:44 | 52.33516 | 4.74008 | 7042 ft | 280 kts | 274° |
| 2026-05-05 19:44 | 52.33774 | 4.70850 | 6833 ft | 281 kts | 284° |
| 2026-05-05 19:44 | 52.34202 | 4.67757 | 6582 ft | 278 kts | 283° |
| 2026-05-05 19:44 | 52.34226 | 4.64607 | 6329 ft | 278 kts | 264° |
| 2026-05-05 19:45 | 52.33768 | 4.61552 | 6042 ft | 278 kts | 251° |
| 2026-05-05 19:45 | 52.32852 | 4.58741 | 5674 ft | 282 kts | 239° |
| 2026-05-05 19:45 | 52.31788 | 4.56031 | 5319 ft | 284 kts | 239° |
| 2026-05-05 19:45 | 52.30754 | 4.53345 | 4981 ft | 279 kts | 240° |
| 2026-05-05 19:46 | 52.29736 | 4.50699 | 4614 ft | 272 kts | 239° |
| 2026-05-05 19:46 | 52.28741 | 4.48138 | 4435 ft | 259 kts | 239° |
| 2026-05-05 19:46 | 52.27681 | 4.45806 | 3973 ft | 261 kts | 223° |
| 2026-05-05 19:46 | 52.26085 | 4.44424 | 3548 ft | 261 kts | 194° |
| 2026-05-05 19:47 | 52.24309 | 4.44323 | 3140 ft | 254 kts | 166° |
| 2026-05-05 19:47 | 52.22744 | 4.45454 | 2886 ft | 238 kts | 139° |
| 2026-05-05 19:47 | 52.21688 | 4.47327 | 2888 ft | 214 kts | 115° |
| 2026-05-05 19:47 | 52.21294 | 4.48773 | 2893 ft | 200 kts | 102° |
| 2026-05-05 19:48 | 52.21095 | 4.51561 | 2865 ft | 177 kts | 79° |
| 2026-05-05 19:48 | 52.21122 | 4.52895 | 2848 ft | 171 kts | 84° |
| 2026-05-05 19:48 | 52.21401 | 4.54617 | 2751 ft | 131 kts | 53° |
| 2026-05-05 19:48 | 52.21906 | 4.55817 | 2601 ft | 135 kts | 54° |
| 2026-05-05 19:49 | 52.22427 | 4.57144 | 2421 ft | 137 kts | 55° |
| 2026-05-05 19:49 | 52.22911 | 4.58392 | 2223 ft | 128 kts | 55° |
| 2026-05-05 19:49 | 52.23386 | 4.59604 | 2047 ft | 126 kts | 55° |
| 2026-05-05 19:49 | 52.23850 | 4.60799 | 1877 ft | 123 kts | 54° |
| 2026-05-05 19:50 | 52.24313 | 4.61983 | 1714 ft | 125 kts | 55° |
| 2026-05-05 19:50 | 52.24776 | 4.63177 | 1540 ft | 124 kts | 54° |
| 2026-05-05 19:50 | 52.25231 | 4.64329 | 1368 ft | 115 kts | 55° |
| 2026-05-05 19:50 | 52.25631 | 4.65364 | 1202 ft | 101 kts | 54° |
| 2026-05-05 19:51 | 52.26002 | 4.66317 | 1075 ft | 99 kts | 54° |
| 2026-05-05 19:51 | 52.26370 | 4.67264 | 942 ft | 99 kts | 54° |
| 2026-05-05 19:51 | 52.26749 | 4.68236 | 809 ft | 103 kts | 53° |
| 2026-05-05 19:51 | 52.27144 | 4.69237 | 669 ft | 107 kts | 55° |
| 2026-05-05 19:52 | 52.27543 | 4.70276 | 542 ft | 107 kts | 53° |
| 2026-05-05 19:52 | 52.27941 | 4.71312 | 377 ft | 108 kts | 51° |
| 2026-05-05 19:52 | 52.28335 | 4.72288 | 246 ft | 103 kts | 52° |
| 2026-05-05 19:52 | 52.28729 | 4.73317 | 107 ft | 110 kts | 53° |
| 2026-05-05 19:53 | 52.29129 | 4.74341 | -5 ft | 94 kts | 56° |
| 2026-05-05 19:53 | 52.29341 | 4.74852 | -8 ft | 45 kts | 53° |
| 2026-05-05 19:53 | 52.29500 | 4.75257 | -9 ft | 18 kts | 58° |
| 2026-05-05 19:53 | 52.29620 | 4.75350 | -6 ft | 19 kts | 343° |
| 2026-05-05 19:54 | 52.29664 | 4.75311 | -8 ft | 0 kts | 331° |
| 2026-05-05 19:54 | 52.29666 | 4.75310 | -8 ft | 0 kts | 331° |
| 2026-05-05 19:54 | 52.29695 | 4.75287 | -8 ft | 13 kts | 339° |
| 2026-05-05 19:55 | 52.29780 | 4.75406 | -8 ft | 22 kts | 72° |
| 2026-05-05 19:55 | 52.29870 | 4.75647 | -8 ft | 28 kts | 53° |
| 2026-05-05 19:55 | 52.29981 | 4.75956 | -8 ft | 35 kts | 59° |
| 2026-05-05 19:55 | 52.30120 | 4.76318 | -8 ft | 40 kts | 59° |
| 2026-05-05 19:56 | 52.30274 | 4.76724 | -8 ft | 44 kts | 58° |
| 2026-05-05 19:56 | 52.30436 | 4.77147 | -8 ft | 45 kts | 58° |
| 2026-05-05 19:56 | 52.30580 | 4.77518 | -8 ft | 26 kts | 50° |
| 2026-05-05 19:56 | 52.30746 | 4.77595 | -8 ft | 26 kts | 4° |
| 2026-05-05 19:57 | 52.30935 | 4.77613 | -8 ft | 28 kts | 4° |
| 2026-05-05 19:57 | 52.31119 | 4.77634 | -8 ft | 20 kts | 14° |
| 2026-05-05 19:57 | 52.31161 | 4.77715 | -8 ft | 15 kts | 50° |
| 2026-05-05 19:57 | 52.31243 | 4.77911 | -7 ft | 26 kts | 81° |
| 2026-05-05 19:58 | 52.31263 | 4.78197 | -9 ft | 6 kts | 47° |
| 2026-05-05 19:58 | 52.31348 | 4.78257 | -6 ft | 16 kts | 40° |
| 2026-05-05 19:58 | 52.31375 | 4.78458 | -10 ft | 23 kts | 85° |
| 2026-05-05 19:58 | 52.31388 | 4.78748 | -11 ft | 28 kts | 86° |
| 2026-05-05 19:59 | 52.31401 | 4.79084 | -12 ft | 32 kts | 86° |
| 2026-05-05 19:59 | 52.31417 | 4.79452 | -9 ft | 31 kts | 84° |
| 2026-05-05 19:59 | 52.31320 | 4.79756 | -9 ft | 33 kts | 131° |
| 2026-05-05 19:59 | 52.31155 | 4.80059 | -12 ft | 38 kts | 132° |
| 2026-05-05 20:00 | 52.31046 | 4.80265 | -10 ft | 11 kts | 120° |
| 2026-05-05 20:00 | 52.31073 | 4.80335 | -10 ft | 3 kts | 354° |
| 2026-05-05 20:00 | 52.31089 | 4.80315 | -10 ft | 4 kts | 316° |
| 2026-05-05 20:00 | 52.31097 | 4.80303 | -10 ft | 0 kts | 314° |